createdAt,value
2018-08-31T00:01:09.316Z,101343.91
2018-08-31T00:04:49.580Z,101347.91
2018-08-31T00:07:30.256Z,101348.90
2018-08-31T00:12:12.421Z,101351.73
2018-08-31T00:14:39.785Z,101348.40
2018-08-31T00:17:06.979Z,101351.26
2018-08-31T00:19:34.256Z,101349.63
2018-08-31T00:22:01.572Z,101351.06
2018-08-31T00:24:40.131Z,101345.42
2018-08-31T00:27:18.855Z,101351.00
2018-08-31T00:29:57.817Z,101348.35
2018-08-31T00:33:01.619Z,101349.60
2018-08-31T00:35:40.493Z,101349.73
2018-08-31T00:39:23.705Z,101353.42
2018-08-31T00:42:04.735Z,101349.53
2018-08-31T00:45:37.588Z,101353.66
2018-08-31T00:48:05.492Z,101354.76
2018-08-31T00:50:33.086Z,101354.79
2018-08-31T00:53:00.859Z,101359.17
2018-08-31T00:55:28.296Z,101353.21
2018-08-31T00:57:55.520Z,101352.73
2018-08-31T01:00:22.725Z,101345.93
2018-08-31T01:02:49.931Z,101351.11
2018-08-31T01:05:17.581Z,101353.59
2018-08-31T01:07:44.919Z,101357.04
2018-08-31T01:10:12.383Z,101365.06
2018-08-31T01:12:39.909Z,101359.42
2018-08-31T01:15:07.691Z,101360.26
2018-08-31T01:17:35.008Z,101358.70
2018-08-31T01:20:02.190Z,101358.55
2018-08-31T01:22:29.388Z,101356.18
2018-08-31T01:24:56.631Z,101350.57
2018-08-31T01:27:23.822Z,101356.72
2018-08-31T01:29:51.086Z,101365.09
2018-08-31T01:32:18.445Z,101356.39
2018-08-31T01:34:45.581Z,101354.63
2018-08-31T01:37:12.814Z,101351.59
2018-08-31T01:39:40.434Z,101359.81
2018-08-31T01:42:07.796Z,101357.72
2018-08-31T01:44:35.020Z,101359.91
2018-08-31T01:47:02.564Z,101360.50
2018-08-31T01:49:29.745Z,101355.85
2018-08-31T01:51:56.965Z,101357.80
2018-08-31T01:54:24.271Z,101355.73
2018-08-31T01:56:51.789Z,101360.11
2018-08-31T01:59:19.117Z,101357.11
2018-08-31T02:01:46.292Z,101364.28
2018-08-31T02:04:13.443Z,101367.25
2018-08-31T02:06:41.514Z,101367.39
2018-08-31T02:09:14.528Z,101369.64
2018-08-31T02:11:41.840Z,101361.33
2018-08-31T02:14:09.095Z,101369.13
2018-08-31T02:16:36.468Z,101367.00
2018-08-31T02:19:03.916Z,101372.92
2018-08-31T02:21:36.781Z,101373.91
2018-08-31T02:24:04.089Z,101370.70
2018-08-31T02:26:31.232Z,101377.10
2018-08-31T02:28:58.494Z,101385.41
2018-08-31T02:31:25.739Z,101377.72
2018-08-31T02:33:53.665Z,101383.46
2018-08-31T02:36:20.888Z,101388.00
2018-08-31T02:38:48.019Z,101386.28
2018-08-31T02:41:15.671Z,101385.09
2018-08-31T02:43:43.698Z,101385.55
2018-08-31T02:46:10.992Z,101389.63
2018-08-31T02:48:38.216Z,101384.83
2018-08-31T02:51:05.561Z,101392.94
2018-08-31T02:53:32.847Z,101393.88
2018-08-31T02:56:01.025Z,101394.83
2018-08-31T02:58:28.229Z,101391.77
2018-08-31T03:00:55.476Z,101396.16
2018-08-31T03:03:22.825Z,101398.52
2018-08-31T03:05:50.189Z,101400.27
2018-08-31T03:08:17.475Z,101396.05
2018-08-31T03:10:45.053Z,101393.47
2018-08-31T03:13:12.254Z,101398.83
2018-08-31T03:15:39.424Z,101400.64
2018-08-31T03:18:06.616Z,101402.83
2018-08-31T03:20:33.924Z,101400.66
2018-08-31T03:23:01.102Z,101402.41
2018-08-31T03:25:28.796Z,101401.96
2018-08-31T03:27:58.430Z,101398.48
2018-08-31T03:30:25.631Z,101404.08
2018-08-31T03:32:53.029Z,101403.32
2018-08-31T03:35:20.201Z,101398.80
2018-08-31T03:37:47.413Z,101401.59
2018-08-31T03:40:15.629Z,101395.53
2018-08-31T03:42:42.812Z,101400.81
2018-08-31T03:45:10.071Z,101403.52
2018-08-31T03:47:37.524Z,101397.48
2018-08-31T03:50:05.001Z,101398.02
2018-08-31T03:52:32.205Z,101403.23
2018-08-31T03:54:59.445Z,101409.02
2018-08-31T03:57:26.917Z,101404.45
2018-08-31T03:59:54.120Z,101406.16
2018-08-31T04:02:21.312Z,101411.04
2018-08-31T04:04:48.530Z,101408.02
2018-08-31T04:07:15.773Z,101409.87
2018-08-31T04:09:42.975Z,101409.88
2018-08-31T04:12:10.165Z,101410.73
2018-08-31T04:14:38.100Z,101409.92
2018-08-31T04:17:05.887Z,101418.59
2018-08-31T04:19:33.132Z,101419.61
2018-08-31T04:22:00.750Z,101419.98
2018-08-31T04:24:27.992Z,101413.89
2018-08-31T04:26:55.376Z,101420.97
2018-08-31T04:29:22.634Z,101410.22
2018-08-31T04:31:49.903Z,101418.71
2018-08-31T04:34:17.576Z,101409.78
2018-08-31T04:36:44.879Z,101415.17
2018-08-31T04:39:13.088Z,101414.30
2018-08-31T04:41:42.001Z,101414.85
2018-08-31T04:44:09.681Z,101412.58
2018-08-31T04:46:37.265Z,101424.39
2018-08-31T04:49:04.784Z,101426.63
2018-08-31T04:51:32.329Z,101436.56
2018-08-31T04:53:59.806Z,101437.99
2018-08-31T04:56:27.498Z,101434.05
2018-08-31T04:58:54.928Z,101440.11
2018-08-31T05:01:22.335Z,101443.26
2018-08-31T05:03:49.712Z,101453.77
2018-08-31T05:06:17.065Z,101443.58
2018-08-31T05:08:45.333Z,101440.83
2018-08-31T05:11:12.832Z,101443.42
2018-08-31T05:13:40.552Z,101450.81
2018-08-31T05:16:07.775Z,101450.34
2018-08-31T05:18:35.193Z,101448.97
2018-08-31T05:21:05.875Z,101445.22
2018-08-31T05:23:33.095Z,101445.31
2018-08-31T05:26:00.349Z,101445.10
2018-08-31T05:28:27.537Z,101452.52
2018-08-31T05:30:55.393Z,101456.02
2018-08-31T05:33:22.593Z,101450.42
2018-08-31T05:35:50.728Z,101453.42
2018-08-31T05:38:17.939Z,101447.61
2018-08-31T05:40:45.133Z,101454.60
2018-08-31T05:43:12.338Z,101457.74
2018-08-31T05:45:39.492Z,101458.81
2018-08-31T05:48:06.800Z,101462.68
2018-08-31T05:50:33.990Z,101470.34
2018-08-31T05:53:01.212Z,101479.10
2018-08-31T05:55:28.473Z,101470.06
2018-08-31T05:57:55.601Z,101470.45
2018-08-31T06:00:22.940Z,101470.80
2018-08-31T06:02:50.153Z,101473.84
2018-08-31T06:05:17.283Z,101473.33
2018-08-31T06:07:44.690Z,101482.88
2018-08-31T06:10:12.133Z,101484.61
2018-08-31T06:12:39.433Z,101481.81
2018-08-31T06:15:06.660Z,101478.16
2018-08-31T06:17:33.890Z,101481.91
2018-08-31T06:20:01.105Z,101481.08
2018-08-31T06:22:28.204Z,101478.55
2018-08-31T06:24:55.516Z,101483.23
2018-08-31T06:27:23.278Z,101489.10
2018-08-31T06:29:50.783Z,101492.89
2018-08-31T06:32:18.012Z,101497.30
2018-08-31T06:34:45.316Z,101495.95
2018-08-31T06:37:12.537Z,101490.97
2018-08-31T06:39:39.884Z,101494.00
2018-08-31T06:42:07.015Z,101488.05
2018-08-31T06:44:34.541Z,101490.14
2018-08-31T06:47:01.774Z,101497.87
2018-08-31T06:49:29.231Z,101506.80
2018-08-31T06:51:56.411Z,101512.05
2018-08-31T06:56:53.289Z,101507.77
2018-08-31T06:59:20.540Z,101512.19
2018-08-31T07:01:47.838Z,101515.98
2018-08-31T07:04:15.113Z,101516.05
2018-08-31T07:06:42.592Z,101522.77
2018-08-31T07:09:10.880Z,101530.98
2018-08-31T07:11:38.079Z,101522.02
2018-08-31T07:14:05.643Z,101525.55
2018-08-31T07:16:32.785Z,101524.25
2018-08-31T07:19:01.037Z,101534.25
2018-08-31T07:21:28.211Z,101528.61
2018-08-31T07:23:55.986Z,101537.50
2018-08-31T07:26:23.467Z,101536.30
2018-08-31T07:28:50.807Z,101540.12
2018-08-31T07:31:17.959Z,101542.37
2018-08-31T07:33:45.159Z,101546.38
2018-08-31T07:36:12.962Z,101546.14
2018-08-31T07:38:40.284Z,101547.43
2018-08-31T07:41:07.446Z,101551.27
2018-08-31T07:43:34.585Z,101550.78
2018-08-31T07:46:01.746Z,101554.80
2018-08-31T07:48:28.936Z,101553.81
2018-08-31T07:50:56.280Z,101550.58
2018-08-31T07:53:25.440Z,101551.70
2018-08-31T07:55:52.681Z,101555.35
2018-08-31T07:58:19.950Z,101553.16
2018-08-31T08:00:47.245Z,101552.74
2018-08-31T08:03:14.705Z,101553.61
2018-08-31T08:05:41.827Z,101559.79
2018-08-31T08:08:08.968Z,101560.49
2018-08-31T08:10:36.264Z,101566.30
2018-08-31T08:13:03.426Z,101565.59
2018-08-31T08:15:37.666Z,101567.25
2018-08-31T08:18:04.788Z,101575.53
2018-08-31T08:20:31.900Z,101572.08
2018-08-31T08:22:59.108Z,101566.47
2018-08-31T08:25:26.260Z,101563.98
2018-08-31T08:27:53.545Z,101563.13
2018-08-31T08:30:20.731Z,101564.11
2018-08-31T08:32:52.356Z,101571.39
2018-08-31T08:35:19.824Z,101568.22
2018-08-31T08:37:47.031Z,101572.39
2018-08-31T08:40:14.351Z,101574.62
2018-08-31T08:42:41.565Z,101581.16
2018-08-31T08:45:08.717Z,101587.10
2018-08-31T08:47:35.976Z,101590.47
2018-08-31T08:50:03.157Z,101590.50
2018-08-31T08:52:30.364Z,101596.89
2018-08-31T08:54:57.628Z,101600.72
2018-08-31T08:57:24.809Z,101598.05
2018-08-31T08:59:52.186Z,101598.63
2018-08-31T09:02:19.310Z,101595.95
2018-08-31T09:04:46.709Z,101597.30
2018-08-31T09:07:16.027Z,101596.05
2018-08-31T09:09:43.429Z,101590.85
2018-08-31T09:12:10.713Z,101591.08
2018-08-31T09:14:37.899Z,101595.00
2018-08-31T09:17:05.264Z,101598.45
2018-08-31T09:19:32.426Z,101597.53
2018-08-31T09:21:59.672Z,101597.77
2018-08-31T09:24:27.176Z,101590.71
2018-08-31T09:26:54.417Z,101586.19
2018-08-31T09:29:21.698Z,101585.81
2018-08-31T09:31:48.897Z,101585.94
2018-08-31T09:34:16.100Z,101582.67
2018-08-31T09:36:43.309Z,101588.89
2018-08-31T09:39:10.456Z,101587.36
2018-08-31T09:41:38.902Z,101601.12
2018-08-31T09:44:06.119Z,101595.66
2018-08-31T09:46:33.261Z,101593.39
2018-08-31T09:49:00.483Z,101595.04
2018-08-31T09:51:27.664Z,101589.97
2018-08-31T09:53:54.890Z,101582.80
2018-08-31T09:56:22.032Z,101583.88
2018-08-31T09:58:49.176Z,101584.20
2018-08-31T10:01:23.144Z,101586.39
2018-08-31T10:03:50.338Z,101583.55
2018-08-31T10:06:17.574Z,101581.61
2018-08-31T10:08:44.985Z,101581.66
2018-08-31T10:11:12.358Z,101583.30
2018-08-31T10:13:39.584Z,101587.91
2018-08-31T10:16:06.837Z,101583.80
2018-08-31T10:18:34.062Z,101575.94
2018-08-31T10:21:01.175Z,101582.69
2018-08-31T10:23:28.363Z,101587.34
2018-08-31T10:25:55.549Z,101580.31
2018-08-31T10:28:23.197Z,101582.09
2018-08-31T10:30:50.480Z,101580.75
2018-08-31T10:33:17.698Z,101579.02
2018-08-31T10:35:47.099Z,101581.28
2018-08-31T10:38:14.465Z,101582.14
2018-08-31T10:40:41.661Z,101579.97
2018-08-31T10:43:09.977Z,101580.89
2018-08-31T10:45:37.743Z,101575.00
2018-08-31T10:48:05.007Z,101579.06
2018-08-31T10:50:32.291Z,101578.42
2018-08-31T10:53:00.498Z,101577.73
2018-08-31T10:55:27.790Z,101578.42
2018-08-31T10:57:55.035Z,101577.97
2018-08-31T11:00:22.334Z,101571.08
2018-08-31T11:02:49.563Z,101564.84
2018-08-31T11:05:16.873Z,101563.27
2018-08-31T11:07:44.239Z,101566.17
2018-08-31T11:10:11.417Z,101568.89
2018-08-31T11:12:38.752Z,101558.45
2018-08-31T11:15:06.113Z,101563.62
2018-08-31T11:17:33.284Z,101567.84
2018-08-31T11:20:00.572Z,101577.84
2018-08-31T11:22:28.105Z,101570.14
2018-08-31T11:24:55.410Z,101575.34
2018-08-31T11:27:22.697Z,101572.78
2018-08-31T11:29:49.855Z,101575.78
2018-08-31T11:32:17.080Z,101580.72
2018-08-31T11:34:44.247Z,101573.11
2018-08-31T11:37:11.504Z,101577.05
2018-08-31T11:39:38.702Z,101579.59
2018-08-31T11:42:05.903Z,101579.36
2018-08-31T11:44:33.191Z,101580.39
2018-08-31T11:47:00.382Z,101581.74
2018-08-31T11:49:27.504Z,101579.36
2018-08-31T11:51:54.728Z,101578.88
2018-08-31T11:54:22.904Z,101578.73
2018-08-31T11:56:50.107Z,101579.28
2018-08-31T11:59:17.253Z,101581.19
2018-08-31T12:01:44.449Z,101590.75
2018-08-31T12:04:12.273Z,101588.92
2018-08-31T12:06:39.459Z,101588.94
2018-08-31T12:09:07.429Z,101574.77
2018-08-31T12:11:34.579Z,101573.92
2018-08-31T12:14:01.760Z,101577.36
2018-08-31T12:16:29.454Z,101570.38
2018-08-31T12:18:56.584Z,101573.70
2018-08-31T12:21:24.664Z,101575.44
2018-08-31T12:23:51.837Z,101572.80
2018-08-31T12:26:18.999Z,101572.05
2018-08-31T12:28:46.376Z,101580.61
2018-08-31T12:31:13.571Z,101575.66
2018-08-31T12:33:44.560Z,101572.91
2018-08-31T12:36:11.748Z,101573.86
2018-08-31T12:38:38.862Z,101569.52
2018-08-31T12:41:06.063Z,101572.66
2018-08-31T12:43:33.294Z,101562.67
2018-08-31T12:46:00.513Z,101561.69
2018-08-31T12:48:27.656Z,101561.84
2018-08-31T12:50:54.825Z,101567.94
2018-08-31T12:53:24.377Z,101564.28
2018-08-31T12:55:51.498Z,101563.61
2018-08-31T12:58:18.754Z,101564.50
2018-08-31T13:00:45.923Z,101564.75
2018-08-31T13:03:13.558Z,101562.46
2018-08-31T13:05:40.991Z,101564.98
2018-08-31T13:08:08.278Z,101563.64
2018-08-31T13:10:35.536Z,101573.52
2018-08-31T13:13:02.711Z,101567.27
2018-08-31T13:15:29.831Z,101566.63
2018-08-31T13:17:58.541Z,101566.95
2018-08-31T13:20:26.653Z,101559.41
2018-08-31T13:22:58.290Z,101562.62
2018-08-31T13:25:25.486Z,101568.80
2018-08-31T13:27:52.673Z,101571.98
2018-08-31T13:30:19.847Z,101556.08
2018-08-31T13:32:47.032Z,101557.06
2018-08-31T13:35:14.263Z,101556.81
2018-08-31T13:37:41.404Z,101564.98
2018-08-31T13:40:08.553Z,101563.53
2018-08-31T13:42:36.870Z,101552.98
2018-08-31T13:45:04.113Z,101551.91
2018-08-31T13:47:31.354Z,101563.82
2018-08-31T13:49:58.550Z,101565.16
2018-08-31T13:52:25.771Z,101563.06
2018-08-31T13:54:53.314Z,101558.96
2018-08-31T13:57:20.789Z,101554.36
2018-08-31T13:59:48.073Z,101555.78
2018-08-31T14:02:15.718Z,101556.17
2018-08-31T14:04:42.880Z,101557.36
2018-08-31T14:07:11.486Z,101558.70
2018-08-31T14:09:38.653Z,101558.96
2018-08-31T14:12:06.090Z,101557.56
2018-08-31T14:14:33.239Z,101559.33
2018-08-31T14:17:00.516Z,101567.05
2018-08-31T14:19:27.847Z,101564.17
2018-08-31T14:21:55.000Z,101562.44
2018-08-31T14:24:22.418Z,101561.66
2018-08-31T14:26:49.586Z,101558.70
2018-08-31T14:46:33.057Z,101555.61
2018-08-31T14:49:00.272Z,101554.19
2018-08-31T14:51:27.452Z,101556.82
2018-08-31T14:53:54.579Z,101553.13
2018-08-31T14:56:22.001Z,101547.06
2018-08-31T15:16:04.937Z,101560.14
2018-08-31T15:18:32.162Z,101555.98
2018-08-31T15:20:59.524Z,101559.55
2018-08-31T15:23:27.057Z,101554.52
2018-08-31T15:25:54.364Z,101549.95
2018-08-31T15:28:21.504Z,101547.75
2018-08-31T15:30:48.706Z,101556.66
2018-08-31T15:33:16.559Z,101568.23
2018-08-31T15:53:00.860Z,101567.89
2018-08-31T16:12:45.137Z,101569.63
2018-08-31T16:15:13.539Z,101571.45
2018-08-31T16:34:56.533Z,101572.45
2018-08-31T16:54:40.438Z,101567.73
2018-08-31T16:57:07.611Z,101574.52
2018-08-31T17:16:50.338Z,101566.92
2018-08-31T17:19:17.457Z,101565.66
2018-08-31T17:21:45.541Z,101573.68
2018-08-31T17:41:42.488Z,101594.03
2018-08-31T17:44:09.651Z,101592.55
2018-08-31T18:00:59.973Z,101604.97
2018-08-31T18:03:27.118Z,101610.87
2018-08-31T18:05:54.304Z,101615.37
2018-08-31T18:08:21.419Z,101619.40
2018-08-31T18:10:48.560Z,101623.55
2018-08-31T18:13:15.664Z,101626.78
2018-08-31T18:15:42.846Z,101627.20
2018-08-31T18:18:11.391Z,101623.27
2018-08-31T18:20:41.644Z,101625.00
2018-08-31T18:23:12.703Z,101618.69
2018-08-31T18:25:39.937Z,101626.92
2018-08-31T18:28:07.562Z,101615.32
2018-08-31T18:30:35.099Z,101617.69
2018-08-31T18:33:02.252Z,101624.05
2018-08-31T18:35:29.417Z,101623.22
2018-08-31T18:37:56.541Z,101628.38
2018-08-31T18:40:23.764Z,101628.62
2018-08-31T18:42:51.077Z,101631.98
2018-08-31T18:45:18.265Z,101630.36
2018-08-31T18:47:45.687Z,101633.64
2018-08-31T18:50:12.824Z,101638.70
2018-08-31T18:52:42.073Z,101641.55
2018-08-31T18:55:09.291Z,101642.54
2018-08-31T18:57:36.470Z,101642.63
2018-08-31T19:00:03.979Z,101646.34
2018-08-31T19:02:31.110Z,101644.75
2018-08-31T19:04:58.261Z,101646.16
2018-08-31T19:07:25.525Z,101651.50
2018-08-31T19:09:52.653Z,101652.41
2018-08-31T19:12:19.833Z,101661.84
2018-08-31T19:14:46.993Z,101665.03
2018-08-31T19:17:15.221Z,101665.14
2018-08-31T19:19:42.435Z,101666.58
2018-08-31T19:22:09.621Z,101662.41
2018-08-31T19:24:36.727Z,101666.53
2018-08-31T19:27:03.887Z,101671.59
2018-08-31T19:29:31.181Z,101679.62
2018-08-31T19:31:58.380Z,101677.91
2018-08-31T19:34:25.593Z,101679.38
2018-08-31T19:36:52.833Z,101674.61
2018-08-31T19:39:20.168Z,101678.75
2018-08-31T19:41:47.288Z,101681.05
2018-08-31T19:44:15.885Z,101674.53
2018-08-31T19:46:43.046Z,101674.67
2018-08-31T19:49:10.172Z,101677.80
2018-08-31T19:51:37.450Z,101683.77
2018-08-31T19:54:04.685Z,101684.18
2018-08-31T19:56:37.546Z,101683.02
2018-08-31T19:59:05.074Z,101688.94
2018-08-31T20:01:33.413Z,101690.71
2018-08-31T20:04:01.364Z,101698.72
2018-08-31T20:06:28.876Z,101698.43
2018-08-31T20:08:56.853Z,101702.11
2018-08-31T20:11:24.133Z,101701.00
2018-08-31T20:13:51.538Z,101707.34
2018-08-31T20:16:18.850Z,101705.67
2018-08-31T20:18:46.073Z,101708.31
2018-08-31T20:21:14.155Z,101711.92
2018-08-31T20:23:43.262Z,101711.68
2018-08-31T20:26:10.458Z,101708.06
2018-08-31T20:28:38.056Z,101709.98
2018-08-31T20:31:05.754Z,101721.66
2018-08-31T20:33:33.030Z,101728.80
2018-08-31T20:36:00.341Z,101716.63
2018-08-31T20:38:27.482Z,101725.59
2018-08-31T20:40:54.613Z,101727.53
2018-08-31T20:43:21.818Z,101733.87
2018-08-31T20:45:48.947Z,101737.43
2018-08-31T20:48:16.071Z,101740.62
2018-08-31T20:50:44.037Z,101745.61
2018-08-31T20:53:12.288Z,101747.60
2018-08-31T20:55:39.995Z,101746.86
2018-08-31T20:58:07.324Z,101747.00
2018-08-31T21:00:34.506Z,101751.09
2018-08-31T21:03:02.507Z,101748.89
2018-08-31T21:05:29.653Z,101748.05
2018-08-31T21:07:56.875Z,101743.24
2018-08-31T21:10:24.075Z,101737.59
2018-08-31T21:12:53.330Z,101735.00
2018-08-31T21:15:20.434Z,101743.82
2018-08-31T21:17:48.273Z,101742.03
2018-08-31T21:20:15.388Z,101743.02
2018-08-31T21:22:42.596Z,101743.95
2018-08-31T21:25:09.779Z,101747.10
2018-08-31T21:27:37.249Z,101752.88
2018-08-31T21:30:04.651Z,101749.84
2018-08-31T21:32:31.914Z,101745.86
2018-08-31T21:34:59.189Z,101744.97
2018-08-31T21:37:26.350Z,101749.02
2018-08-31T21:39:53.528Z,101748.50
2018-08-31T21:42:20.651Z,101752.98
2018-08-31T21:44:47.785Z,101753.36
2018-08-31T21:47:15.023Z,101752.92
2018-08-31T21:49:42.156Z,101752.02
2018-08-31T21:52:09.292Z,101761.20
2018-08-31T21:54:36.525Z,101768.70
2018-08-31T21:57:03.680Z,101766.48
2018-08-31T21:59:30.881Z,101767.38
2018-08-31T22:01:58.029Z,101766.56
2018-08-31T22:04:25.174Z,101770.31
2018-08-31T22:06:52.365Z,101767.73
2018-08-31T22:09:19.567Z,101765.52
2018-08-31T22:11:46.795Z,101767.71
2018-08-31T22:14:13.894Z,101765.77
2018-08-31T22:16:41.034Z,101761.09
2018-08-31T22:19:08.147Z,101764.13
2018-08-31T22:21:35.311Z,101766.80
2018-08-31T22:24:02.553Z,101762.43
2018-08-31T22:26:29.668Z,101763.83
2018-08-31T22:28:56.772Z,101760.31
2018-08-31T22:31:23.945Z,101761.73
2018-08-31T22:33:51.048Z,101758.73
2018-08-31T22:36:18.261Z,101762.39
2018-08-31T22:38:45.472Z,101757.66
2018-08-31T22:41:12.578Z,101750.71
2018-08-31T22:43:45.391Z,101748.60
2018-08-31T22:46:12.559Z,101750.47
2018-08-31T22:48:39.765Z,101751.84
2018-08-31T22:51:06.983Z,101756.27
2018-08-31T22:53:34.098Z,101753.23
2018-08-31T22:56:01.200Z,101753.23
2018-08-31T22:58:28.336Z,101753.23
2018-08-31T23:00:55.510Z,101753.67
2018-08-31T23:03:22.599Z,101756.70
2018-08-31T23:05:49.763Z,101753.34
2018-08-31T23:08:16.906Z,101755.98
2018-08-31T23:10:44.016Z,101752.98
2018-08-31T23:13:11.262Z,101763.02
2018-08-31T23:15:38.385Z,101759.47
2018-08-31T23:18:05.501Z,101760.03
2018-08-31T23:20:32.676Z,101757.89
2018-08-31T23:24:08.077Z,101761.52
2018-08-31T23:26:35.300Z,101751.95
2018-08-31T23:29:02.429Z,101757.66
2018-08-31T23:31:29.549Z,101759.86
2018-08-31T23:33:56.703Z,101755.47
2018-08-31T23:36:23.826Z,101755.81
2018-08-31T23:38:51.018Z,101761.52
2018-08-31T23:41:18.442Z,101753.56
2018-08-31T23:43:45.563Z,101757.04
2018-08-31T23:46:12.683Z,101755.83
2018-08-31T23:48:39.860Z,101750.48
2018-08-31T23:51:07.066Z,101753.89
2018-08-31T23:53:34.192Z,101753.15
2018-08-31T23:56:01.362Z,101747.48
2018-08-31T23:58:28.485Z,101736.00
